createdAt,value
2023-02-01T00:00:28.330Z,98986.72
2023-02-01T00:02:54.913Z,98989.41
2023-02-01T00:05:21.475Z,98986.06
2023-02-01T00:07:49.625Z,98988.91
2023-02-01T00:10:16.657Z,98983.50
2023-02-01T00:12:43.225Z,98978.38
2023-02-01T00:17:57.208Z,98987.00
2023-02-01T00:20:23.822Z,98982.56
2023-02-01T00:22:50.423Z,98979.50
2023-02-01T00:25:16.997Z,98978.38
2023-02-01T00:27:43.510Z,98972.69
2023-02-01T00:30:11.090Z,98972.53
2023-02-01T00:32:37.641Z,98977.03
2023-02-01T00:35:04.527Z,98973.19
2023-02-01T00:37:31.017Z,98967.44
2023-02-01T00:39:57.535Z,98963.47
2023-02-01T00:42:24.043Z,98958.22
2023-02-01T00:44:50.536Z,98952.81
2023-02-01T00:47:17.087Z,98965.38
2023-02-01T00:49:43.594Z,98964.84
2023-02-01T00:52:10.111Z,98956.13
2023-02-01T00:54:37.890Z,98953.91
2023-02-01T00:57:04.382Z,98944.69
2023-02-01T00:59:30.887Z,98942.47
2023-02-01T01:01:57.450Z,98931.44
2023-02-01T01:04:23.992Z,98918.53
2023-02-01T01:06:50.541Z,98899.13
2023-02-01T01:09:17.134Z,98906.09
2023-02-01T01:11:43.701Z,98905.00
2023-02-01T01:14:10.908Z,98901.31
2023-02-01T01:16:37.526Z,98905.47
2023-02-01T01:19:04.156Z,98898.94
2023-02-01T01:21:31.296Z,98900.09
2023-02-01T01:23:58.076Z,98909.94
2023-02-01T01:26:27.686Z,98912.16
2023-02-01T01:28:57.158Z,98924.22
2023-02-01T01:31:24.387Z,98925.78
2023-02-01T01:33:53.473Z,98934.25
2023-02-01T01:36:21.184Z,98936.81
2023-02-01T01:38:48.244Z,98934.91
2023-02-01T01:41:18.548Z,98933.59
2023-02-01T01:44:05.668Z,98935.06
2023-02-01T01:46:39.176Z,98940.47
2023-02-01T01:49:13.935Z,98947.16
2023-02-01T01:51:57.176Z,98936.50
2023-02-01T01:54:43.149Z,98925.38
2023-02-01T01:57:18.350Z,98927.91
2023-02-01T02:12:49.723Z,98925.88
2023-02-01T02:15:18.191Z,98916.63
2023-02-01T02:17:51.295Z,98921.75
2023-02-01T02:20:17.827Z,98918.41
2023-02-01T02:22:58.491Z,98920.13
2023-02-01T02:28:29.857Z,98920.97
2023-02-01T02:31:11.526Z,98928.59
2023-02-01T02:33:58.720Z,98927.47
2023-02-01T02:36:49.449Z,98930.50
2023-02-01T02:39:21.713Z,98916.66
2023-02-01T02:42:26.879Z,98912.22
2023-02-01T02:45:20.214Z,98911.72
2023-02-01T02:48:13.380Z,98918.13
2023-02-01T02:51:05.895Z,98907.31
2023-02-01T02:54:08.668Z,98911.72
2023-02-01T02:56:55.281Z,98916.50
2023-02-01T02:59:44.054Z,98911.72
2023-02-01T03:02:30.228Z,98909.34
2023-02-01T03:04:57.539Z,98910.13
2023-02-01T03:07:58.211Z,98904.41
2023-02-01T03:10:32.679Z,98908.38
2023-02-01T03:13:06.840Z,98901.69
2023-02-01T03:15:52.676Z,98900.56
2023-02-01T03:18:27.377Z,98897.06
2023-02-01T03:20:56.596Z,98888.34
2023-02-01T03:23:29.143Z,98893.28
2023-02-01T03:25:58.609Z,98877.66
2023-02-01T03:28:28.794Z,98864.44
2023-02-01T03:30:55.715Z,98850.13
2023-02-01T03:33:25.434Z,98848.84
2023-02-01T03:39:10.375Z,98842.31
2023-02-01T03:41:43.420Z,98836.59
2023-02-01T03:44:24.744Z,98835.63
2023-02-01T03:47:00.025Z,98837.22
2023-02-01T03:49:30.679Z,98836.25
2023-02-01T03:52:00.056Z,98834.81
2023-02-01T03:54:29.144Z,98831.19
2023-02-01T03:56:59.168Z,98847.75
2023-02-01T03:59:25.744Z,98840.88
2023-02-01T04:01:52.283Z,98864.44
2023-02-01T04:04:21.970Z,98867.00
2023-02-01T04:06:50.060Z,98874.47
2023-02-01T04:09:16.913Z,98873.19
2023-02-01T04:11:44.146Z,98874.81
2023-02-01T04:14:10.746Z,98869.06
2023-02-01T04:16:37.359Z,98866.69
2023-02-01T04:19:04.035Z,98869.06
2023-02-01T04:21:30.895Z,98853.47
2023-02-01T04:23:57.462Z,98827.34
2023-02-01T04:26:24.472Z,98831.97
2023-02-01T04:28:51.942Z,98826.72
2023-02-01T04:31:25.815Z,98838.81
2023-02-01T04:33:53.931Z,98841.53
2023-02-01T04:36:24.340Z,98848.22
2023-02-01T04:38:51.829Z,98846.47
2023-02-01T04:41:19.949Z,98827.69
2023-02-01T04:43:52.110Z,98830.06
2023-02-01T04:46:18.693Z,98828.63
2023-02-01T04:48:45.274Z,98835.81
2023-02-01T04:51:11.868Z,98843.28
2023-02-01T04:53:38.465Z,98834.38
2023-02-01T04:58:37.963Z,98860.78
2023-02-01T05:01:06.283Z,98850.63
2023-02-01T05:06:06.094Z,98814.47
2023-02-01T05:11:04.795Z,98825.75
2023-02-01T05:13:50.296Z,98833.59
2023-02-01T05:16:17.513Z,98834.06
2023-02-01T05:18:44.055Z,98833.88
2023-02-01T05:21:10.603Z,98831.66
2023-02-01T05:26:28.428Z,98832.78
2023-02-01T05:28:55.241Z,98832.63
2023-02-01T05:31:22.513Z,98829.59
2023-02-01T05:33:49.218Z,98831.81
2023-02-01T05:36:16.044Z,98835.00
2023-02-01T05:38:42.709Z,98836.63
2023-02-01T05:41:09.626Z,98841.84
2023-02-01T05:43:36.208Z,98847.41
2023-02-01T05:46:02.825Z,98828.00
2023-02-01T05:48:29.349Z,98831.03
2023-02-01T05:50:56.132Z,98835.81
2023-02-01T05:53:22.713Z,98838.81
2023-02-01T05:55:49.303Z,98838.03
2023-02-01T05:58:15.821Z,98834.53
2023-02-01T06:00:42.578Z,98837.56
2023-02-01T06:03:09.140Z,98835.00
2023-02-01T06:05:35.723Z,98849.34
2023-02-01T06:08:02.911Z,98845.22
2023-02-01T06:10:29.498Z,98855.41
2023-02-01T06:12:56.007Z,98840.25
2023-02-01T06:15:22.591Z,98835.34
2023-02-01T06:17:49.229Z,98856.84
2023-02-01T06:20:16.402Z,98877.22
2023-02-01T06:22:43.141Z,98874.50
2023-02-01T06:25:11.052Z,98859.22
2023-02-01T06:27:38.002Z,98873.38
2023-02-01T06:30:06.800Z,98866.69
2023-02-01T06:32:33.862Z,98868.47
2023-02-01T06:35:01.683Z,98878.16
2023-02-01T06:37:30.392Z,98865.59
2023-02-01T06:39:57.039Z,98864.16
2023-02-01T06:42:24.102Z,98868.63
2023-02-01T06:44:50.788Z,98864.31
2023-02-01T06:47:17.306Z,98870.53
2023-02-01T06:49:43.838Z,98875.78
2023-02-01T06:52:10.344Z,98876.09
2023-02-01T06:54:38.431Z,98873.56
2023-02-01T06:57:05.567Z,98871.00
2023-02-01T06:59:32.549Z,98880.41
2023-02-01T07:01:59.065Z,98896.31
2023-02-01T07:04:25.639Z,98890.44
2023-02-01T07:06:52.163Z,98885.81
2023-02-01T07:09:18.694Z,98896.97
2023-02-01T07:11:45.256Z,98893.47
2023-02-01T07:14:12.135Z,98904.63
2023-02-01T07:16:38.759Z,98913.06
2023-02-01T07:19:05.490Z,98916.25
2023-02-01T07:21:32.082Z,98910.97
2023-02-01T07:23:59.568Z,98924.38
2023-02-01T07:26:26.172Z,98918.66
2023-02-01T07:28:53.162Z,98921.81
2023-02-01T07:31:22.640Z,98919.75
2023-02-01T07:33:52.655Z,98926.28
2023-02-01T07:36:20.040Z,98925.47
2023-02-01T07:38:50.381Z,98919.59
2023-02-01T07:41:17.728Z,98923.09
2023-02-01T07:43:44.341Z,98933.94
2023-02-01T07:46:12.351Z,98933.31
2023-02-01T07:48:39.307Z,98934.88
2023-02-01T07:51:09.519Z,98923.41
2023-02-01T07:53:36.863Z,98917.06
2023-02-01T07:56:04.684Z,98922.63
2023-02-01T07:58:31.245Z,98929.13
2023-02-01T08:01:16.620Z,98916.06
2023-02-01T08:03:43.502Z,98922.75
2023-02-01T08:06:10.222Z,98927.09
2023-02-01T08:08:36.748Z,98929.00
2023-02-01T08:11:06.048Z,98922.78
2023-02-01T08:13:33.844Z,98911.63
2023-02-01T08:16:01.833Z,98909.88
2023-02-01T08:18:28.688Z,98915.13
2023-02-01T08:20:55.354Z,98904.94
2023-02-01T08:23:23.031Z,98910.03
2023-02-01T08:25:49.675Z,98905.38
2023-02-01T08:28:16.691Z,98903.63
2023-02-01T08:30:43.481Z,98901.25
2023-02-01T08:33:10.519Z,98911.13
2023-02-01T08:35:43.116Z,98914.78
2023-02-01T08:38:10.741Z,98926.13
2023-02-01T08:40:37.384Z,98935.03
2023-02-01T08:43:04.329Z,98932.31
2023-02-01T08:45:31.173Z,98930.59
2023-02-01T08:47:58.253Z,98935.34
2023-02-01T08:50:26.670Z,98928.34
2023-02-01T08:52:54.378Z,98934.56
2023-02-01T08:55:21.933Z,98935.34
2023-02-01T08:57:48.830Z,98931.66
2023-02-01T09:02:49.849Z,98931.84
2023-02-01T09:05:17.579Z,98936.31
2023-02-01T09:07:44.112Z,98941.72
2023-02-01T09:10:11.447Z,98941.56
2023-02-01T09:12:38.804Z,98938.53
2023-02-01T09:15:08.204Z,98947.16
2023-02-01T09:17:35.045Z,98949.25
2023-02-01T09:20:02.042Z,98956.88
2023-02-01T09:22:28.598Z,98946.19
2023-02-01T09:24:55.457Z,98954.31
2023-02-01T09:27:22.725Z,98958.16
2023-02-01T09:29:53.633Z,98960.69
2023-02-01T09:32:24.340Z,98961.19
2023-02-01T09:34:52.593Z,98964.53
2023-02-01T09:37:20.380Z,98958.00
2023-02-01T09:39:46.984Z,98945.56
2023-02-01T09:42:17.775Z,98955.91
2023-02-01T09:45:16.675Z,98953.06
2023-02-01T09:47:50.213Z,98963.91
2023-02-01T09:50:24.559Z,98955.13
2023-02-01T09:52:58.649Z,98961.97
2023-02-01T09:58:24.975Z,98963.75
2023-02-01T10:00:58.104Z,98963.59
2023-02-01T10:03:33.324Z,98975.38
2023-02-01T10:06:11.720Z,98975.53
2023-02-01T10:08:56.739Z,98968.97
2023-02-01T10:11:49.691Z,98972.97
2023-02-01T10:14:25.213Z,98962.25
2023-02-01T10:17:04.958Z,98985.72
2023-02-01T10:19:50.093Z,98989.69
2023-02-01T10:23:26.953Z,98994.28
2023-02-01T10:26:00.477Z,98985.94
2023-02-01T10:28:27.126Z,98976.13
2023-02-01T10:30:58.506Z,98988.38
2023-02-01T10:33:33.176Z,98988.69
2023-02-01T10:36:06.745Z,98988.38
2023-02-01T10:38:34.632Z,99007.06
2023-02-01T10:41:13.239Z,98997.13
2023-02-01T10:43:40.417Z,99004.66
2023-02-01T10:46:08.654Z,99004.88
2023-02-01T10:48:36.136Z,98998.69
2023-02-01T10:51:20.805Z,99002.03
2023-02-01T10:56:29.604Z,98990.56
2023-02-01T10:59:04.497Z,98992.50
2023-02-01T11:01:42.638Z,98985.50
2023-02-01T11:04:14.477Z,98984.69
2023-02-01T11:06:53.685Z,98992.66
2023-02-01T11:09:23.685Z,98978.31
2023-02-01T11:11:50.225Z,98983.59
2023-02-01T11:14:19.389Z,98969.81
2023-02-01T11:17:18.752Z,98975.91
2023-02-01T11:19:46.560Z,98961.50
2023-02-01T11:22:14.769Z,98968.72
2023-02-01T11:24:46.416Z,98977.78
2023-02-01T11:27:27.206Z,98966.16
2023-02-01T11:30:01.702Z,98962.13
2023-02-01T11:32:28.999Z,98954.63
2023-02-01T11:35:06.824Z,98946.75
2023-02-01T11:37:40.850Z,98951.91
2023-02-01T11:40:36.555Z,98946.81
2023-02-01T11:43:24.514Z,98935.16
2023-02-01T11:46:17.376Z,98933.38
2023-02-01T11:48:44.743Z,98928.28
2023-02-01T11:51:46.148Z,98916.63
2023-02-01T11:54:19.344Z,98917.06
2023-02-01T11:57:05.997Z,98909.41
2023-02-01T11:59:56.722Z,98898.56
2023-02-01T12:02:57.795Z,98899.88
2023-02-01T12:05:36.276Z,98898.75
2023-02-01T12:08:27.920Z,98909.78
2023-02-01T12:11:19.153Z,98914.72
2023-02-01T12:13:48.523Z,98893.19
2023-02-01T12:16:38.523Z,98895.09
2023-02-01T12:19:31.536Z,98898.25
2023-02-01T12:22:26.147Z,98890.47
2023-02-01T12:25:15.153Z,98882.38
2023-02-01T12:27:47.754Z,98894.03
2023-02-01T12:30:41.332Z,98896.13
2023-02-01T12:33:33.003Z,98903.44
2023-02-01T12:36:25.343Z,98899.50
2023-02-01T12:39:17.976Z,98899.28
2023-02-01T12:41:53.137Z,98895.94
2023-02-01T12:44:47.600Z,98911.75
2023-02-01T12:47:18.047Z,98905.06
2023-02-01T12:49:57.173Z,98900.22
2023-02-01T12:52:48.120Z,98909.50
2023-02-01T12:55:42.627Z,98920.19
2023-02-01T12:58:29.161Z,98941.13
2023-02-01T13:01:04.021Z,98914.19
2023-02-01T13:03:33.573Z,98915.34
2023-02-01T13:06:03.812Z,98908.81
2023-02-01T13:09:08.938Z,98904.97
2023-02-01T13:11:39.244Z,98913.41
2023-02-01T13:14:14.745Z,98913.13
2023-02-01T13:16:48.581Z,98902.94
2023-02-01T13:19:20.075Z,98899.94
2023-02-01T13:21:55.940Z,98910.63
2023-02-01T13:24:33.835Z,98905.34
2023-02-01T13:27:01.179Z,98897.53
2023-02-01T13:29:30.464Z,98896.25
2023-02-01T13:32:20.471Z,98896.03
2023-02-01T13:35:03.387Z,98899.22
2023-02-01T13:37:44.927Z,98887.56
2023-02-01T13:40:45.383Z,98884.69
2023-02-01T13:59:43.770Z,98860.69
2023-02-01T14:02:40.889Z,98852.91
2023-02-01T14:05:12.232Z,98858.16
2023-02-01T14:08:07.601Z,98855.66
2023-02-01T14:10:46.030Z,98864.91
2023-02-01T14:13:30.432Z,98851.19
2023-02-01T14:16:03.003Z,98852.50
2023-02-01T14:18:38.507Z,98858.28
2023-02-01T14:21:31.719Z,98857.81
2023-02-01T14:24:01.622Z,98856.50
2023-02-01T14:26:44.770Z,98854.75
2023-02-01T14:29:21.047Z,98846.97
2023-02-01T14:32:05.026Z,98858.94
2023-02-01T14:34:53.603Z,98865.28
2023-02-01T14:37:21.857Z,98859.72
2023-02-01T14:39:59.363Z,98868.63
2023-02-01T14:45:24.885Z,98867.34
2023-02-01T14:48:06.895Z,98860.31
2023-02-01T14:50:33.513Z,98863.00
2023-02-01T14:53:21.504Z,98879.59
2023-02-01T14:55:54.001Z,98881.50
2023-02-01T14:58:35.935Z,98881.50
2023-02-01T15:01:06.717Z,98901.78
2023-02-01T15:03:44.317Z,98882.00
2023-02-01T15:06:25.215Z,98874.22
2023-02-01T15:08:56.943Z,98876.63
2023-02-01T15:11:23.542Z,98863.97
2023-02-01T15:13:54.811Z,98874.84
2023-02-01T15:16:23.866Z,98876.13
2023-02-01T15:18:50.988Z,98880.91
2023-02-01T15:21:30.499Z,98885.06
2023-02-01T15:24:13.683Z,98879.97
2023-02-01T15:29:18.690Z,98892.75
2023-02-01T15:31:50.781Z,98880.25
2023-02-01T15:34:18.984Z,98888.09
2023-02-01T15:37:01.644Z,98890.31
2023-02-01T15:39:32.079Z,98898.34
2023-02-01T15:42:03.352Z,98899.28
2023-02-01T15:44:34.746Z,98902.94
2023-02-01T15:47:08.918Z,98891.28
2023-02-01T15:49:41.587Z,98884.63
2023-02-01T15:52:22.606Z,98883.63
2023-02-01T15:54:53.896Z,98883.31
2023-02-01T15:57:31.271Z,98890.56
2023-02-01T16:00:01.050Z,98900.19
2023-02-01T16:02:38.962Z,98907.69
2023-02-01T16:08:12.864Z,98901.03
2023-02-01T16:10:43.180Z,98911.03
2023-02-01T16:15:49.132Z,98908.03
2023-02-01T16:18:18.805Z,98903.69
2023-02-01T16:20:46.473Z,98911.53
2023-02-01T16:23:13.646Z,98906.94
2023-02-01T16:25:41.136Z,98901.94
2023-02-01T16:28:07.871Z,98907.72
2023-02-01T16:30:34.917Z,98908.81
2023-02-01T16:33:09.646Z,98914.41
2023-02-01T16:35:37.907Z,98910.75
2023-02-01T16:40:42.102Z,98914.25
2023-02-01T16:43:22.729Z,98912.50
2023-02-01T16:45:51.470Z,98912.81
2023-02-01T16:48:30.553Z,98897.66
2023-02-01T16:51:01.243Z,98893.81
2023-02-01T16:53:31.029Z,98903.88
2023-02-01T16:55:58.760Z,98907.38
2023-02-01T16:58:26.820Z,98906.75
2023-02-01T17:00:54.491Z,98907.25
2023-02-01T17:03:22.537Z,98896.91
2023-02-01T17:05:55.664Z,98897.22
2023-02-01T17:08:35.298Z,98899.94
2023-02-01T17:11:02.889Z,98899.13
2023-02-01T17:13:29.680Z,98898.06
2023-02-01T17:16:14.635Z,98902.09
2023-02-01T17:18:41.242Z,98912.97
2023-02-01T17:21:07.850Z,98908.81
2023-02-01T17:23:34.559Z,98916.19
2023-02-01T17:26:01.329Z,98911.41
2023-02-01T17:28:27.895Z,98912.69
2023-02-01T17:30:54.512Z,98916.06
2023-02-01T17:33:35.663Z,98918.91
2023-02-01T17:36:04.555Z,98919.38
2023-02-01T17:38:33.367Z,98930.22
2023-02-01T17:41:00.165Z,98917.00
2023-02-01T17:43:26.957Z,98919.03
2023-02-01T17:45:57.449Z,98925.91
2023-02-01T17:48:24.738Z,98925.91
2023-02-01T17:50:54.753Z,98913.44
2023-02-01T17:53:24.678Z,98909.78
2023-02-01T17:55:52.183Z,98902.78
2023-02-01T17:58:19.411Z,98915.16
2023-02-01T18:00:47.791Z,98912.97
2023-02-01T18:03:26.071Z,98917.75
2023-02-01T18:08:35.038Z,98920.75
2023-02-01T18:11:02.203Z,98934.66
2023-02-01T18:13:30.126Z,98939.91
2023-02-01T18:15:59.130Z,98932.59
2023-02-01T18:18:26.412Z,98933.72
2023-02-01T18:20:52.989Z,98936.59
2023-02-01T18:23:22.549Z,98934.97
2023-02-01T18:25:51.556Z,98948.53
2023-02-01T18:28:19.727Z,98955.56
2023-02-01T18:30:49.205Z,98952.81
2023-02-01T18:33:18.638Z,98952.03
2023-02-01T18:35:45.470Z,98953.00
2023-02-01T18:38:12.243Z,98944.22
2023-02-01T18:40:52.642Z,98943.38
2023-02-01T18:43:20.571Z,98937.03
2023-02-01T18:45:47.899Z,98934.63
2023-02-01T18:48:17.023Z,98938.94
2023-02-01T18:50:45.711Z,98934.50
2023-02-01T18:53:20.104Z,98933.66
2023-02-01T18:55:50.125Z,98928.59
2023-02-01T18:58:18.001Z,98930.03
2023-02-01T19:00:45.767Z,98934.00
2023-02-01T19:03:13.860Z,98936.88
2023-02-01T19:05:41.186Z,98933.22
2023-02-01T19:08:08.745Z,98929.56
2023-02-01T19:10:38.671Z,98923.03
2023-02-01T19:13:05.700Z,98923.03
2023-02-01T19:15:34.841Z,98911.19
2023-02-01T19:18:01.460Z,98902.25
2023-02-01T19:20:28.040Z,98908.00
2023-02-01T19:22:54.589Z,98905.28
2023-02-01T19:25:27.043Z,98896.34
2023-02-01T19:27:54.550Z,98888.84
2023-02-01T19:30:22.185Z,98893.94
2023-02-01T19:32:51.353Z,98888.22
2023-02-01T19:37:51.629Z,98899.84
2023-02-01T19:40:20.002Z,98893.00
2023-02-01T19:42:47.992Z,98893.16
2023-02-01T19:45:15.461Z,98888.44
2023-02-01T19:47:42.444Z,98893.28
2023-02-01T19:50:15.408Z,98893.00
2023-02-01T19:52:42.146Z,98905.53
2023-02-01T19:55:08.983Z,98911.16
2023-02-01T19:57:36.495Z,98911.78
2023-02-01T20:00:05.352Z,98927.41
2023-02-01T20:02:31.230Z,98915.16
2023-02-01T20:04:58.474Z,98915.81
2023-02-01T20:07:24.961Z,98919.81
2023-02-01T20:09:51.585Z,98921.25
2023-02-01T20:12:18.944Z,98922.03
2023-02-01T20:14:45.467Z,98924.28
2023-02-01T20:17:15.756Z,98923.31
2023-02-01T20:22:20.127Z,98926.19
2023-02-01T20:24:46.674Z,98930.81
2023-02-01T20:27:14.197Z,98933.88
2023-02-01T20:29:41.722Z,98927.16
2023-02-01T20:32:08.902Z,98930.50
2023-02-01T20:34:35.527Z,98924.59
2023-02-01T20:37:02.128Z,98929.06
2023-02-01T20:39:28.684Z,98932.56
2023-02-01T20:41:55.902Z,98930.97
2023-02-01T20:44:22.501Z,98942.00
2023-02-01T20:46:49.071Z,98938.78
2023-02-01T20:49:15.708Z,98934.66
2023-02-01T20:51:42.233Z,98936.22
2023-02-01T20:54:08.715Z,98939.56
2023-02-01T20:56:35.289Z,98939.41
2023-02-01T20:59:04.704Z,98944.66
2023-02-01T21:01:31.261Z,98949.78
2023-02-01T21:03:57.796Z,98950.44
2023-02-01T21:06:24.376Z,98945.47
2023-02-01T21:08:50.919Z,98964.78
2023-02-01T21:11:17.578Z,98949.59
2023-02-01T21:13:50.685Z,98936.69
2023-02-01T21:16:19.670Z,98935.91
2023-02-01T21:18:50.742Z,98942.59
2023-02-01T21:23:57.480Z,98934.59
2023-02-01T21:28:58.409Z,98937.00
2023-02-01T21:31:25.944Z,98926.94
2023-02-01T21:33:52.912Z,98933.94
2023-02-01T21:36:19.584Z,98933.00
2023-02-01T21:38:50.913Z,98932.84
2023-02-01T21:41:41.241Z,98936.03
2023-02-01T21:44:08.712Z,98938.56
2023-02-01T21:46:35.373Z,98934.91
2023-02-01T21:49:05.240Z,98928.06
2023-02-01T21:51:35.257Z,98930.44
2023-02-01T21:54:02.144Z,98917.84
2023-02-01T21:56:29.220Z,98928.38
2023-02-01T21:58:55.778Z,98931.56
2023-02-01T22:01:22.860Z,98927.06
2023-02-01T22:06:27.211Z,98925.84
2023-02-01T22:08:54.214Z,98928.06
2023-02-01T22:11:21.230Z,98919.44
2023-02-01T22:13:47.950Z,98928.50
2023-02-01T22:16:18.064Z,98920.06
2023-02-01T22:18:45.847Z,98922.44
2023-02-01T22:21:12.406Z,98929.97
2023-02-01T22:23:38.924Z,98926.41
2023-02-01T22:26:09.169Z,98931.72
2023-02-01T22:28:37.036Z,98922.16
2023-02-01T22:31:05.898Z,98923.91
2023-02-01T22:33:36.202Z,98938.22
2023-02-01T22:36:03.833Z,98934.50
2023-02-01T22:38:31.674Z,98928.22
2023-02-01T22:40:59.505Z,98929.81
2023-02-01T22:46:02.026Z,98933.28
2023-02-01T22:48:30.126Z,98935.03
2023-02-01T22:51:00.545Z,98934.28
2023-02-01T22:56:07.527Z,98943.25
2023-02-01T22:58:37.411Z,98937.66
2023-02-01T23:01:08.152Z,98941.97
2023-02-01T23:03:36.388Z,98950.13
2023-02-01T23:06:04.244Z,98937.34
2023-02-01T23:11:06.915Z,98936.38
2023-02-01T23:13:34.529Z,98932.06
2023-02-01T23:16:09.711Z,98938.28
2023-02-01T23:18:36.548Z,98940.19
2023-02-01T23:21:18.198Z,98926.34
2023-02-01T23:23:50.334Z,98942.28
2023-02-01T23:26:17.744Z,98924.13
2023-02-01T23:28:45.201Z,98925.53
2023-02-01T23:31:14.195Z,98929.84
2023-02-01T23:33:46.765Z,98930.97
2023-02-01T23:36:16.327Z,98931.44
2023-02-01T23:38:44.728Z,98926.50
2023-02-01T23:41:12.740Z,98934.31
2023-02-01T23:43:57.977Z,98931.44
2023-02-01T23:46:39.374Z,98942.78
2023-02-01T23:49:07.529Z,98930.47
2023-02-01T23:51:34.492Z,98939.53
2023-02-01T23:54:01.581Z,98934.59
2023-02-01T23:56:31.332Z,98926.97
2023-02-01T23:58:58.045Z,98925.06
